Zweibrucken, Germany

12:26 AM CEST on August 21, 2014 (GMT +0200)
ISAARLAN15 | Change Station
CLOSE
Current Station
Personal Weather Station
Location: Blieskastel, SAARLAND
Elevation: 922 ft
Nearby Weather Stations

Elev 922 ft 49.26 °N, 7.24 °E | Updated 1 minute ago

Clear
Clear
50.2 °F
Feels Like 50.2 °F
N
0.0
Wind Variable Wind from NNW
Gusts 0.0 mph

Today
High -- | Low -- °F
--% Chance of Precip.
Yesterday
High -- | Low -- °F
Precip. -- in
6:30 AM 8:35 PM
Waning Crescent, 19% visible
Pressure 30.04 in
Visibility -9999.0 miles
Clouds
Dew Point 48 °F
Humidity 94%
Rainfall 0.00 in
Snow Depth Not available.
UV Not available.
Pollen Not available.
Air Quality Not available.
Flu Activity Not available.
METAR EDDR 202220Z VRB01KT CAVOK 10/08 Q1017

More Conditions Fewer Conditions

Pressure 30.04 in
Visibility -9999.0 miles
Clouds
Dew Point 48 °F
Humidity 94%
Rainfall 0.00 in
Snow Depth Not available.
UV Not available.
Pollen Not available.
Air Quality Not available.
Flu Activity Not available.
METAR EDDR 202220Z VRB01KT CAVOK 10/08 Q1017

More Conditions Fewer Conditions

10-Day Weather Forecast

Almanac

Astronomy

Aug. 21, 2014 Rise Set
Actual Time 6:30 AM CEST 8:35 PM CEST
Civil Twilight 5:55 AM CEST 9:09 PM CEST
Nautical Twilight 5:13 AM CEST 9:52 PM CEST
Astronomical Twilight 4:24 AM CEST 10:40 PM CEST
Moon 2:37 AM CEST (8/21) 6:01 PM CEST (8/21)
Length of Visible Light 15h 14m
Length of Day
14h 05m
Tomorrow will be 3m 22s shorter.
Waning Crescent, 19% of the Moon is Illuminated
Aug 20
Waning Crescent
Aug 25
New
Sep 2
First Quarter
Sep 8
Full
Sep 15
Last Quarter

Yesterday's Extremes

Country Highs Country Lows

Community

WunderPhotos

Upload Photos

1,745,779 photos uploaded!

Nearby

Snow Depth

Not available.

Earthquake Activity

City Distance Mag. Time & Date
No recent earthquake activity has been reported nearby.
Minimum magnitude displayed is 2.5.

Coastal Water Temperatures

Place Temperature
No Stations Reporting

Nearby Weather Stations